createdAt,value
2023-03-02T00:00:47.865Z,3.64
2023-03-02T00:03:18.084Z,3.85
2023-03-02T00:05:47.171Z,3.49
2023-03-02T00:08:16.803Z,3.69
2023-03-02T00:10:43.787Z,3.82
2023-03-02T00:13:11.834Z,3.35
2023-03-02T00:15:38.478Z,3.54
2023-03-02T00:18:04.967Z,3.49
2023-03-02T00:20:32.030Z,3.51
2023-03-02T00:22:58.408Z,3.58
2023-03-02T00:25:24.855Z,3.53
2023-03-02T00:27:51.347Z,3.65
2023-03-02T00:30:17.997Z,3.28
2023-03-02T00:32:45.786Z,3.69
2023-03-02T00:35:12.494Z,3.60
2023-03-02T00:37:39.000Z,3.72
2023-03-02T00:40:09.388Z,3.70
2023-03-02T00:42:37.081Z,3.70
2023-03-02T00:45:05.427Z,3.54
2023-03-02T00:47:36.126Z,2.47
2023-03-02T00:50:04.498Z,2.60
2023-03-02T00:52:32.444Z,2.60
2023-03-02T00:54:59.074Z,2.61
2023-03-02T00:57:26.042Z,3.17
2023-03-02T00:59:52.610Z,3.31
2023-03-02T01:02:21.604Z,3.49
2023-03-02T01:04:48.583Z,3.57
2023-03-02T01:07:18.242Z,3.55
2023-03-02T01:09:45.439Z,3.57
2023-03-02T01:12:12.237Z,3.44
2023-03-02T01:14:40.941Z,3.37
2023-03-02T01:17:08.576Z,3.35
2023-03-02T01:19:35.380Z,3.30
2023-03-02T01:22:02.902Z,2.81
2023-03-02T01:24:29.395Z,2.98
2023-03-02T01:26:55.993Z,2.81
2023-03-02T01:29:22.396Z,3.01
2023-03-02T01:31:48.955Z,3.23
2023-03-02T01:34:15.769Z,2.32
2023-03-02T01:36:45.514Z,2.19
2023-03-02T01:39:16.294Z,2.55
2023-03-02T01:41:43.860Z,2.97
2023-03-02T01:44:38.455Z,1.75
2023-03-02T01:47:13.912Z,2.13
2023-03-02T01:49:46.960Z,2.00
2023-03-02T01:52:13.600Z,2.68
2023-03-02T01:54:42.505Z,2.99
2023-03-02T01:57:09.761Z,3.15
2023-03-02T01:59:39.814Z,3.14
2023-03-02T02:02:08.933Z,2.08
2023-03-02T02:04:37.918Z,1.88
2023-03-02T02:07:07.219Z,1.23
2023-03-02T02:09:41.149Z,1.35
2023-03-02T02:12:16.771Z,1.78
2023-03-02T02:14:44.622Z,1.25
2023-03-02T02:17:12.414Z,1.64
2023-03-02T02:19:51.433Z,1.35
2023-03-02T02:22:43.945Z,1.55
2023-03-02T02:25:26.439Z,2.55
2023-03-02T02:27:53.068Z,3.24
2023-03-02T02:30:21.570Z,3.12
2023-03-02T02:32:52.113Z,3.34
2023-03-02T02:35:22.286Z,3.23
2023-03-02T02:37:56.349Z,3.28
2023-03-02T02:40:44.265Z,2.83
2023-03-02T02:43:16.480Z,3.27
2023-03-02T02:45:43.259Z,3.24
2023-03-02T02:48:18.076Z,2.65
2023-03-02T02:50:46.294Z,2.99
2023-03-02T02:53:27.147Z,2.18
2023-03-02T02:55:56.926Z,2.13
2023-03-02T02:58:26.270Z,1.69
2023-03-02T03:00:54.698Z,1.44
2023-03-02T03:03:30.857Z,1.38
2023-03-02T03:05:59.152Z,2.60
2023-03-02T03:08:43.701Z,1.63
2023-03-02T03:11:15.724Z,1.65
2023-03-02T03:13:44.054Z,1.74
2023-03-02T03:16:14.894Z,0.95
2023-03-02T03:18:46.950Z,0.97
2023-03-02T03:21:13.412Z,1.19
2023-03-02T03:23:39.984Z,1.28
2023-03-02T03:26:06.845Z,1.06
2023-03-02T03:28:33.877Z,0.99
2023-03-02T03:31:00.465Z,0.87
2023-03-02T03:33:27.086Z,0.47
2023-03-02T03:35:53.796Z,0.60
2023-03-02T03:38:20.278Z,0.82
2023-03-02T03:40:46.703Z,0.83
2023-03-02T03:43:15.109Z,0.71
2023-03-02T03:45:41.547Z,0.84
2023-03-02T03:48:07.982Z,0.71
2023-03-02T03:50:34.458Z,1.50
2023-03-02T03:53:03.668Z,1.03
2023-03-02T03:55:31.064Z,0.73
2023-03-02T03:57:57.624Z,0.72
2023-03-02T04:00:24.197Z,1.96
2023-03-02T04:02:50.952Z,1.88
2023-03-02T04:05:17.558Z,1.75
2023-03-02T04:07:44.111Z,2.30
2023-03-02T04:10:12.268Z,1.59
2023-03-02T04:12:40.593Z,1.93
2023-03-02T04:15:10.023Z,2.14
2023-03-02T04:17:36.427Z,0.87
2023-03-02T04:20:07.709Z,1.29
2023-03-02T04:22:34.224Z,1.45
2023-03-02T04:25:00.712Z,1.00
2023-03-02T04:27:27.190Z,1.19
2023-03-02T04:29:53.678Z,0.79
2023-03-02T04:32:20.169Z,1.32
2023-03-02T04:34:46.602Z,2.10
2023-03-02T04:37:13.293Z,1.24
2023-03-02T04:39:39.809Z,0.74
2023-03-02T04:42:06.312Z,-0.29
2023-03-02T04:44:32.787Z,0.56
2023-03-02T04:46:59.243Z,1.01
2023-03-02T04:49:25.695Z,0.28
2023-03-02T04:51:52.178Z,1.23
2023-03-02T04:54:25.273Z,1.42
2023-03-02T04:56:52.779Z,1.31
2023-03-02T04:59:25.920Z,1.12
2023-03-02T05:01:54.722Z,1.19
2023-03-02T05:04:21.630Z,1.24
2023-03-02T05:06:48.158Z,1.61
2023-03-02T05:09:14.737Z,1.19
2023-03-02T05:11:41.415Z,1.09
2023-03-02T05:14:10.932Z,1.05
2023-03-02T05:16:39.678Z,0.83
2023-03-02T05:19:08.005Z,0.90
2023-03-02T05:21:34.786Z,0.92
2023-03-02T05:24:01.244Z,0.01
2023-03-02T05:26:27.697Z,0.03
2023-03-02T05:28:54.216Z,1.70
2023-03-02T05:31:43.908Z,0.98
2023-03-02T05:34:12.867Z,0.83
2023-03-02T05:36:39.654Z,1.10
2023-03-02T05:39:07.139Z,1.67
2023-03-02T05:41:34.053Z,2.28
2023-03-02T05:44:00.534Z,2.29
2023-03-02T05:46:27.354Z,1.60
2023-03-02T05:48:54.113Z,1.77
2023-03-02T05:51:20.543Z,0.83
2023-03-02T05:53:47.036Z,0.97
2023-03-02T05:56:13.565Z,0.76
2023-03-02T06:01:22.030Z,0.47
2023-03-02T06:03:48.564Z,0.67
2023-03-02T06:06:16.436Z,1.12
2023-03-02T06:08:44.094Z,0.84
2023-03-02T06:11:11.152Z,1.74
2023-03-02T06:13:38.160Z,0.71
2023-03-02T06:16:05.463Z,2.01
2023-03-02T06:18:33.282Z,2.18
2023-03-02T06:20:59.945Z,2.20
2023-03-02T06:23:26.528Z,1.42
2023-03-02T06:25:53.017Z,1.08
2023-03-02T06:28:20.311Z,1.21
2023-03-02T06:30:52.206Z,0.85
2023-03-02T06:33:21.058Z,1.30
2023-03-02T06:35:48.244Z,1.04
2023-03-02T06:38:21.370Z,1.04
2023-03-02T06:40:47.823Z,0.28
2023-03-02T06:43:14.630Z,1.73
2023-03-02T06:45:41.131Z,1.33
2023-03-02T06:48:07.865Z,0.70
2023-03-02T06:50:34.863Z,1.59
2023-03-02T06:53:01.375Z,1.14
2023-03-02T06:55:27.949Z,1.89
2023-03-02T06:57:54.449Z,2.41
2023-03-02T07:00:28.204Z,1.84
2023-03-02T07:02:56.178Z,1.12
2023-03-02T07:05:24.377Z,2.44
2023-03-02T07:07:51.422Z,1.74
2023-03-02T07:10:17.999Z,1.48
2023-03-02T07:12:44.682Z,2.02
2023-03-02T07:15:12.283Z,2.29
2023-03-02T07:17:40.223Z,2.37
2023-03-02T07:20:07.482Z,1.61
2023-03-02T07:22:34.054Z,2.11
2023-03-02T07:25:00.542Z,1.75
2023-03-02T07:27:27.241Z,1.17
2023-03-02T07:29:53.716Z,0.73
2023-03-02T07:32:20.182Z,0.64
2023-03-02T07:34:46.654Z,0.89
2023-03-02T07:37:13.167Z,1.70
2023-03-02T07:39:39.618Z,1.18
2023-03-02T07:42:08.800Z,1.65
2023-03-02T07:44:35.263Z,0.81
2023-03-02T07:47:01.720Z,1.44
2023-03-02T07:49:28.755Z,1.40
2023-03-02T07:51:55.198Z,1.17
2023-03-02T07:54:21.610Z,1.94
2023-03-02T07:56:48.072Z,0.26
2023-03-02T07:59:14.632Z,0.66
2023-03-02T08:01:41.126Z,1.54
2023-03-02T08:04:07.670Z,1.25
2023-03-02T08:06:34.107Z,1.31
2023-03-02T08:09:03.630Z,0.69
2023-03-02T08:11:30.544Z,1.63
2023-03-02T08:14:00.722Z,1.05
2023-03-02T08:16:27.417Z,0.95
2023-03-02T08:18:54.067Z,1.57
2023-03-02T08:21:23.638Z,1.68
2023-03-02T08:23:50.857Z,1.05
2023-03-02T08:26:18.475Z,0.62
2023-03-02T08:28:45.611Z,1.53
2023-03-02T08:31:13.149Z,0.93
2023-03-02T08:33:40.024Z,2.14
2023-03-02T08:36:10.856Z,2.80
2023-03-02T08:38:37.434Z,2.16
2023-03-02T08:41:10.469Z,2.84
2023-03-02T08:43:36.880Z,2.78
2023-03-02T08:46:03.692Z,2.85
2023-03-02T08:48:30.261Z,2.12
2023-03-02T08:51:00.953Z,1.89
2023-03-02T08:53:29.298Z,1.22
2023-03-02T08:55:56.061Z,2.07
2023-03-02T08:58:22.746Z,1.61
2023-03-02T09:00:49.283Z,2.82
2023-03-02T09:03:16.114Z,2.12
2023-03-02T09:05:42.934Z,1.76
2023-03-02T09:08:10.173Z,3.10
2023-03-02T09:10:36.882Z,2.96
2023-03-02T09:13:04.056Z,1.62
2023-03-02T09:15:30.501Z,2.19
2023-03-02T09:17:57.588Z,3.04
2023-03-02T09:20:24.159Z,2.70
2023-03-02T09:22:50.770Z,2.44
2023-03-02T09:25:18.608Z,2.00
2023-03-02T09:27:46.716Z,2.97
2023-03-02T09:30:14.258Z,1.23
2023-03-02T09:32:41.239Z,2.48
2023-03-02T09:35:08.528Z,3.52
2023-03-02T09:37:37.396Z,3.03
2023-03-02T09:40:04.546Z,3.50
2023-03-02T09:42:54.461Z,2.32
2023-03-02T09:45:36.018Z,2.14
2023-03-02T09:48:46.122Z,2.95
2023-03-02T09:51:31.637Z,3.56
2023-03-02T09:54:09.175Z,3.39
2023-03-02T09:56:42.437Z,3.60
2023-03-02T09:59:17.941Z,4.39
2023-03-02T10:01:51.228Z,3.71
2023-03-02T10:04:23.670Z,3.61
2023-03-02T10:07:00.343Z,4.05
2023-03-02T10:09:26.835Z,3.66
2023-03-02T10:12:33.252Z,3.87
2023-03-02T10:15:10.537Z,3.81
2023-03-02T10:18:16.868Z,3.67
2023-03-02T10:20:51.250Z,4.09
2023-03-02T10:23:30.973Z,4.95
2023-03-02T10:26:15.404Z,5.23
2023-03-02T10:28:47.027Z,5.36
2023-03-02T10:31:27.812Z,3.64
2023-03-02T10:33:54.766Z,3.47
2023-03-02T10:36:23.892Z,4.05
2023-03-02T10:38:50.921Z,3.53
2023-03-02T10:41:41.170Z,4.64
2023-03-02T10:44:28.664Z,4.75
2023-03-02T10:46:55.530Z,3.90
2023-03-02T10:49:32.221Z,2.85
2023-03-02T10:52:12.296Z,3.79
2023-03-02T10:55:12.893Z,3.80
2023-03-02T10:57:41.835Z,3.97
2023-03-02T11:00:20.400Z,4.24
2023-03-02T11:02:52.832Z,3.17
2023-03-02T11:05:38.641Z,4.30
2023-03-02T11:08:19.647Z,3.99
2023-03-02T11:10:56.946Z,4.45
2023-03-02T11:13:35.307Z,3.90
2023-03-02T11:16:22.467Z,5.35
2023-03-02T11:19:12.099Z,5.05
2023-03-02T11:21:48.818Z,4.19
2023-03-02T11:24:21.714Z,5.10
2023-03-02T11:26:56.672Z,5.04
2023-03-02T11:29:25.980Z,5.51
2023-03-02T11:31:58.833Z,5.51
2023-03-02T11:34:40.211Z,5.51
2023-03-02T11:37:45.222Z,5.69
2023-03-02T11:40:19.066Z,4.67
2023-03-02T11:42:46.818Z,3.93
2023-03-02T11:45:13.532Z,3.64
2023-03-02T11:47:57.640Z,4.11
2023-03-02T11:50:29.728Z,4.96
2023-03-02T11:53:01.436Z,4.22
2023-03-02T11:55:34.037Z,5.10
2023-03-02T11:58:03.922Z,5.39
2023-03-02T12:00:42.290Z,4.64
2023-03-02T12:03:14.702Z,3.82
2023-03-02T12:06:06.886Z,4.96
2023-03-02T12:08:38.339Z,5.57
2023-03-02T12:11:16.660Z,5.85
2023-03-02T12:13:59.367Z,4.91
2023-03-02T12:16:35.450Z,3.78
2023-03-02T12:19:29.246Z,5.15
2023-03-02T12:21:57.634Z,5.63
2023-03-02T12:24:26.922Z,5.66
2023-03-02T12:27:25.392Z,5.83
2023-03-02T12:30:08.641Z,5.64
2023-03-02T12:32:35.213Z,5.72
2023-03-02T12:35:07.498Z,4.40
2023-03-02T12:37:47.858Z,3.65
2023-03-02T12:40:38.554Z,3.33
2023-03-02T12:43:18.352Z,4.08
2023-03-02T12:45:58.555Z,3.50
2023-03-02T12:48:30.755Z,4.85
2023-03-02T12:51:03.801Z,5.63
2023-03-02T12:53:41.082Z,5.57
2023-03-02T12:56:09.128Z,6.16
2023-03-02T12:58:36.069Z,4.59
2023-03-02T13:01:04.024Z,4.93
2023-03-02T13:03:31.789Z,5.22
2023-03-02T13:06:13.881Z,4.84
2023-03-02T13:08:44.519Z,5.12
2023-03-02T13:11:11.534Z,4.64
2023-03-02T13:13:43.837Z,5.94
2023-03-02T13:16:19.597Z,6.41
2023-03-02T13:18:47.020Z,5.20
2023-03-02T13:21:14.809Z,5.36
2023-03-02T13:23:50.748Z,5.65
2023-03-02T13:26:25.447Z,5.73
2023-03-02T13:29:21.142Z,5.46
2023-03-02T13:31:47.892Z,5.02
2023-03-02T13:34:28.147Z,4.84
2023-03-02T13:36:55.064Z,5.72
2023-03-02T13:39:28.257Z,5.28
2023-03-02T13:42:00.199Z,5.53
2023-03-02T13:44:31.936Z,5.33
2023-03-02T13:46:59.008Z,5.21
2023-03-02T13:49:27.858Z,6.40
2023-03-02T13:52:03.029Z,6.27
2023-03-02T13:54:32.052Z,5.82
2023-03-02T13:57:02.186Z,6.18
2023-03-02T13:59:29.506Z,5.41
2023-03-02T14:01:55.933Z,5.20
2023-03-02T14:04:23.518Z,4.77
2023-03-02T14:06:51.699Z,5.02
2023-03-02T14:09:18.309Z,5.21
2023-03-02T14:11:48.295Z,5.81
2023-03-02T14:14:19.405Z,5.44
2023-03-02T14:16:45.834Z,5.19
2023-03-02T14:19:13.832Z,4.93
2023-03-02T14:21:42.013Z,4.90
2023-03-02T14:24:08.655Z,5.94
2023-03-02T14:26:38.120Z,4.83
2023-03-02T14:29:16.596Z,4.89
2023-03-02T14:31:43.017Z,5.55
2023-03-02T14:34:13.384Z,5.09
2023-03-02T14:36:41.058Z,6.02
2023-03-02T14:39:20.162Z,5.25
2023-03-02T14:41:53.483Z,5.81
2023-03-02T14:44:20.777Z,5.39
2023-03-02T14:46:47.532Z,5.03
2023-03-02T14:49:14.132Z,4.88
2023-03-02T14:51:43.402Z,6.26
2023-03-02T14:54:18.226Z,5.04
2023-03-02T14:56:44.973Z,5.27
2023-03-02T14:59:14.138Z,5.34
2023-03-02T15:01:43.496Z,4.72
2023-03-02T15:04:10.194Z,5.12
2023-03-02T15:06:39.010Z,6.03
2023-03-02T15:09:06.172Z,5.37
2023-03-02T15:11:32.926Z,4.96
2023-03-02T15:13:59.581Z,6.12
2023-03-02T15:16:26.124Z,5.50
2023-03-02T15:18:53.168Z,5.84
2023-03-02T15:21:24.408Z,4.60
2023-03-02T15:23:51.418Z,4.32
2023-03-02T15:26:18.349Z,4.40
2023-03-02T15:28:45.659Z,4.72
2023-03-02T15:31:15.655Z,4.16
2023-03-02T15:33:45.108Z,4.19
2023-03-02T15:36:12.972Z,5.51
2023-03-02T15:38:39.561Z,4.84
2023-03-02T15:41:07.748Z,4.14
2023-03-02T15:43:34.538Z,4.33
2023-03-02T15:46:02.222Z,3.69
2023-03-02T15:48:30.141Z,4.41
2023-03-02T15:51:00.786Z,3.82
2023-03-02T15:53:28.346Z,4.62
2023-03-02T15:55:55.310Z,4.89
2023-03-02T15:58:22.550Z,5.08
2023-03-02T16:00:49.760Z,4.58
2023-03-02T16:03:16.522Z,5.10
2023-03-02T16:05:43.150Z,4.05
2023-03-02T16:08:09.588Z,3.90
2023-03-02T16:10:36.698Z,4.37
2023-03-02T16:13:04.785Z,4.26
2023-03-02T16:15:36.747Z,4.37
2023-03-02T16:18:03.178Z,3.42
2023-03-02T16:20:29.675Z,4.27
2023-03-02T16:22:56.156Z,3.92
2023-03-02T16:25:22.583Z,4.86
2023-03-02T16:27:49.925Z,3.44
2023-03-02T16:30:16.397Z,3.40
2023-03-02T16:32:42.944Z,3.63
2023-03-02T16:35:10.002Z,3.77
2023-03-02T16:37:36.852Z,3.33
2023-03-02T16:40:03.929Z,3.99
2023-03-02T16:42:31.544Z,3.55
2023-03-02T16:44:58.004Z,4.11
2023-03-02T16:47:24.411Z,3.30
2023-03-02T16:49:50.824Z,3.76
2023-03-02T16:52:17.707Z,4.17
2023-03-02T16:54:44.974Z,2.47
2023-03-02T16:57:11.419Z,3.65
2023-03-02T16:59:37.844Z,3.75
2023-03-02T17:02:04.356Z,4.04
2023-03-02T17:04:34.711Z,3.69
2023-03-02T17:07:01.634Z,3.91
2023-03-02T17:09:28.383Z,3.95
2023-03-02T17:11:55.084Z,3.63
2023-03-02T17:14:21.529Z,3.70
2023-03-02T17:16:47.997Z,3.64
2023-03-02T17:19:14.456Z,3.57
2023-03-02T17:21:40.961Z,4.48
2023-03-02T17:24:07.514Z,4.17
2023-03-02T17:26:34.134Z,4.20
2023-03-02T17:29:00.647Z,4.31
2023-03-02T17:31:27.193Z,4.88
2023-03-02T17:33:53.658Z,3.81
2023-03-02T17:36:20.147Z,4.02
2023-03-02T17:38:46.674Z,4.54
2023-03-02T17:41:13.139Z,4.60
2023-03-02T17:43:41.242Z,4.93
2023-03-02T17:46:23.240Z,3.78
2023-03-02T17:48:54.107Z,4.50
2023-03-02T17:51:21.699Z,4.93
2023-03-02T17:53:50.479Z,4.82
2023-03-02T17:56:19.398Z,4.32
2023-03-02T17:58:46.269Z,4.53
2023-03-02T18:01:15.637Z,4.72
2023-03-02T18:03:42.657Z,4.95
2023-03-02T18:06:09.084Z,4.10
2023-03-02T18:08:36.896Z,3.41
2023-03-02T18:11:05.232Z,3.60
2023-03-02T18:13:32.451Z,3.64
2023-03-02T18:15:58.937Z,2.91
2023-03-02T18:18:25.448Z,3.44
2023-03-02T18:20:54.892Z,3.53
2023-03-02T18:23:21.584Z,4.24
2023-03-02T18:25:48.976Z,4.38
2023-03-02T18:28:15.651Z,3.68
2023-03-02T18:30:42.668Z,4.60
2023-03-02T18:33:09.425Z,4.32
2023-03-02T18:35:35.941Z,2.99
2023-03-02T18:38:02.509Z,3.67
2023-03-02T18:40:28.958Z,3.54
2023-03-02T18:42:55.516Z,3.90
2023-03-02T18:45:26.868Z,4.09
2023-03-02T18:47:53.384Z,3.67
2023-03-02T18:50:20.186Z,3.92
2023-03-02T18:52:46.698Z,4.59
2023-03-02T18:55:13.283Z,4.37
2023-03-02T18:57:39.941Z,4.46
2023-03-02T19:00:09.258Z,4.29
2023-03-02T19:02:36.050Z,4.42
2023-03-02T19:05:02.484Z,4.97
2023-03-02T19:07:28.908Z,4.14
2023-03-02T19:09:55.313Z,4.86
2023-03-02T19:12:21.770Z,4.86
2023-03-02T19:14:48.227Z,5.15
2023-03-02T19:17:14.640Z,4.95
2023-03-02T19:19:43.506Z,4.99
2023-03-02T19:22:10.227Z,3.86
2023-03-02T19:24:36.746Z,3.94
2023-03-02T19:27:03.522Z,4.20
2023-03-02T19:29:29.991Z,4.02
2023-03-02T19:31:56.495Z,3.78
2023-03-02T19:34:23.321Z,4.04
2023-03-02T19:36:49.976Z,3.93
2023-03-02T19:39:16.409Z,3.73
2023-03-02T19:41:42.824Z,3.85
2023-03-02T19:44:09.477Z,3.75
2023-03-02T19:46:35.919Z,4.35
2023-03-02T19:49:02.323Z,4.52
2023-03-02T19:51:28.959Z,3.94
2023-03-02T19:53:55.646Z,3.52
2023-03-02T19:56:22.130Z,3.90
2023-03-02T19:58:50.169Z,3.53
2023-03-02T20:01:21.727Z,2.69
2023-03-02T20:03:51.542Z,2.92
2023-03-02T20:06:19.543Z,2.99
2023-03-02T20:08:48.009Z,3.99
2023-03-02T20:11:15.134Z,3.66
2023-03-02T20:13:41.668Z,3.93
2023-03-02T20:16:08.663Z,4.38
2023-03-02T20:18:35.426Z,3.74
2023-03-02T20:21:01.968Z,4.35
2023-03-02T20:23:28.407Z,4.45
2023-03-02T20:25:54.852Z,4.04
2023-03-02T20:28:23.710Z,3.85
2023-03-02T20:30:56.752Z,2.59
2023-03-02T20:33:28.686Z,3.92
2023-03-02T20:35:56.023Z,2.93
2023-03-02T20:38:29.427Z,3.04
2023-03-02T20:40:56.525Z,3.56
2023-03-02T20:43:23.078Z,3.84
2023-03-02T20:45:50.197Z,4.14
2023-03-02T20:48:17.704Z,3.96
2023-03-02T20:50:44.498Z,4.01
2023-03-02T20:53:11.680Z,3.70
2023-03-02T20:55:38.671Z,4.43
2023-03-02T20:58:05.436Z,4.57
2023-03-02T21:00:33.969Z,4.47
2023-03-02T21:03:00.762Z,2.86
2023-03-02T21:05:28.276Z,2.82
2023-03-02T21:07:55.977Z,3.52
2023-03-02T21:10:28.109Z,3.94
2023-03-02T21:12:54.653Z,3.46
2023-03-02T21:15:23.923Z,3.54
2023-03-02T21:17:50.977Z,4.10
2023-03-02T21:20:18.380Z,4.33
2023-03-02T21:22:46.250Z,4.33
2023-03-02T21:25:12.979Z,4.53
2023-03-02T21:27:40.134Z,4.56
2023-03-02T21:30:09.087Z,4.28
2023-03-02T21:32:35.519Z,3.25
2023-03-02T21:35:02.477Z,3.00
2023-03-02T21:37:29.101Z,2.64
2023-03-02T21:39:55.772Z,3.09
2023-03-02T21:42:22.409Z,3.25
2023-03-02T21:44:48.804Z,2.87
2023-03-02T21:47:15.217Z,3.51
2023-03-02T21:49:41.625Z,2.53
2023-03-02T21:52:08.476Z,2.41
2023-03-02T21:54:34.894Z,3.48
2023-03-02T21:57:01.342Z,3.25
2023-03-02T21:59:27.786Z,3.41
2023-03-02T22:01:54.193Z,2.96
2023-03-02T22:04:20.862Z,3.59
2023-03-02T22:06:47.413Z,2.68
2023-03-02T22:09:13.821Z,3.28
2023-03-02T22:11:40.386Z,2.87
2023-03-02T22:14:15.449Z,2.62
2023-03-02T22:16:45.110Z,2.44
2023-03-02T22:19:37.950Z,1.85
2023-03-02T22:22:16.700Z,1.38
2023-03-02T22:24:48.965Z,2.26
2023-03-02T22:27:25.919Z,2.00
2023-03-02T22:29:55.156Z,1.98
2023-03-02T22:32:26.025Z,2.49
2023-03-02T22:34:55.491Z,2.79
2023-03-02T22:37:24.813Z,2.83
2023-03-02T22:39:55.792Z,2.84
2023-03-02T22:42:24.937Z,2.82
2023-03-02T22:45:16.782Z,1.99
2023-03-02T22:47:45.358Z,2.72
2023-03-02T22:50:26.543Z,1.70
2023-03-02T22:52:54.254Z,2.54
2023-03-02T22:55:28.033Z,3.32
2023-03-02T22:57:54.458Z,2.85
2023-03-02T23:00:41.009Z,2.80
2023-03-02T23:03:36.173Z,3.16
2023-03-02T23:06:29.077Z,3.22
2023-03-02T23:08:59.605Z,1.52
2023-03-02T23:11:26.978Z,1.21
2023-03-02T23:13:54.610Z,2.52
2023-03-02T23:16:26.813Z,2.56
2023-03-02T23:18:56.209Z,2.24
2023-03-02T23:21:29.950Z,3.07
2023-03-02T23:23:56.393Z,3.51
2023-03-02T23:26:22.949Z,2.75
2023-03-02T23:28:50.609Z,2.50
2023-03-02T23:31:21.176Z,1.70
2023-03-02T23:33:47.926Z,2.76
2023-03-02T23:36:14.791Z,3.06
2023-03-02T23:38:41.679Z,3.71
2023-03-02T23:41:08.757Z,3.75
2023-03-02T23:43:35.645Z,3.69
2023-03-02T23:46:02.208Z,3.66
2023-03-02T23:48:28.707Z,3.99
2023-03-02T23:50:55.129Z,4.05
2023-03-02T23:53:21.584Z,4.06
2023-03-02T23:55:50.411Z,4.23
2023-03-02T23:58:17.058Z,4.29
